createdAt,value
2023-04-04T00:00:38.065Z,103206.47
2023-04-04T00:03:05.923Z,103205.97
2023-04-04T00:05:34.725Z,103207.31
2023-04-04T00:11:00.692Z,103205.16
2023-04-04T00:13:31.532Z,103197.38
2023-04-04T00:16:02.100Z,103194.69
2023-04-04T00:18:37.568Z,103183.38
2023-04-04T00:24:00.715Z,103185.03
2023-04-04T00:26:50.656Z,103176.94
2023-04-04T00:29:20.900Z,103174.28
2023-04-04T00:32:07.235Z,103170.25
2023-04-04T00:34:38.864Z,103169.97
2023-04-04T00:37:09.210Z,103172.44
2023-04-04T00:39:38.079Z,103170.81
2023-04-04T00:42:08.566Z,103168.16
2023-04-04T00:47:37.820Z,103167.59
2023-04-04T00:53:32.097Z,103177.56
2023-04-04T01:08:29.165Z,103174.06
2023-04-04T01:11:22.110Z,103173.00
2023-04-04T01:14:22.067Z,103173.00
2023-04-04T01:26:21.689Z,103171.41
2023-04-04T01:38:31.466Z,103168.16
2023-04-04T01:41:06.390Z,103168.66
2023-04-04T01:43:40.806Z,103174.59
2023-04-04T01:51:59.048Z,103171.34
2023-04-04T01:54:47.393Z,103167.03
2023-04-04T01:57:33.463Z,103166.78
2023-04-04T02:00:04.893Z,103164.34
2023-04-04T02:02:36.448Z,103164.63
2023-04-04T02:05:17.833Z,103168.38
2023-04-04T02:07:58.110Z,103154.13
2023-04-04T02:10:26.919Z,103163.53
2023-04-04T02:15:49.645Z,103173.72
2023-04-04T02:21:05.417Z,103181.47
2023-04-04T02:26:33.561Z,103184.44
2023-04-04T02:34:27.048Z,103179.03
2023-04-04T02:37:06.446Z,103174.22
2023-04-04T02:39:55.317Z,103166.41
2023-04-04T02:42:37.387Z,103158.34
2023-04-04T02:45:07.300Z,103159.69
2023-04-04T02:47:41.057Z,103156.47
2023-04-04T02:50:24.703Z,103159.44
2023-04-04T02:52:57.384Z,103151.91
2023-04-04T02:55:28.569Z,103152.97
2023-04-04T02:57:58.142Z,103154.56
2023-04-04T03:00:32.579Z,103143.03
2023-04-04T03:03:04.793Z,103146.28
2023-04-04T03:05:34.811Z,103141.97
2023-04-04T03:08:10.528Z,103145.72
2023-04-04T03:10:43.279Z,103151.59
2023-04-04T03:16:00.406Z,103149.13
2023-04-04T03:18:28.167Z,103153.41
2023-04-04T03:20:57.615Z,103148.59
2023-04-04T03:23:31.040Z,103138.66
2023-04-04T03:26:03.426Z,103135.72
2023-04-04T03:28:37.916Z,103134.09
2023-04-04T03:31:09.527Z,103141.03
2023-04-04T03:33:40.193Z,103139.97
2023-04-04T03:36:13.044Z,103130.84
2023-04-04T03:38:40.372Z,103135.16
2023-04-04T03:41:09.025Z,103133.53
2023-04-04T03:43:38.145Z,103129.75
2023-04-04T03:46:06.174Z,103128.69
2023-04-04T03:48:35.223Z,103126.56
2023-04-04T03:51:03.466Z,103133.53
2023-04-04T03:56:14.694Z,103130.84
2023-04-04T03:58:44.208Z,103127.06
2023-04-04T04:03:53.693Z,103132.97
2023-04-04T04:06:20.617Z,103140.47
2023-04-04T04:08:47.610Z,103142.06
2023-04-04T04:11:18.036Z,103139.91
2023-04-04T04:13:44.778Z,103137.25
2023-04-04T04:16:15.625Z,103143.41
2023-04-04T04:18:45.080Z,103142.06
2023-04-04T04:21:13.383Z,103139.91
2023-04-04T04:23:43.179Z,103150.09
2023-04-04T04:26:17.831Z,103147.66
2023-04-04T04:28:48.228Z,103140.13
2023-04-04T04:31:17.541Z,103147.38
2023-04-04T04:33:44.705Z,103146.84
2023-04-04T04:36:19.103Z,103137.94
2023-04-04T04:38:52.229Z,103150.28
2023-04-04T04:41:21.778Z,103143.06
2023-04-04T04:43:52.855Z,103140.06
2023-04-04T04:46:23.078Z,103139.78
2023-04-04T04:48:56.402Z,103136.31
2023-04-04T04:51:23.441Z,103141.94
2023-04-04T04:53:50.257Z,103145.66
2023-04-04T04:56:16.876Z,103149.97
2023-04-04T04:58:45.659Z,103155.56
2023-04-04T05:01:12.596Z,103159.06
2023-04-04T05:03:39.795Z,103153.44
2023-04-04T05:06:08.896Z,103163.13
2023-04-04T05:08:37.947Z,103158.56
2023-04-04T05:11:05.579Z,103156.38
2023-04-04T05:13:32.539Z,103157.75
2023-04-04T05:16:05.024Z,103155.31
2023-04-04T05:18:47.659Z,103155.06
2023-04-04T05:21:14.324Z,103158.25
2023-04-04T05:23:45.218Z,103161.25
2023-04-04T05:26:11.765Z,103163.91
2023-04-04T05:28:38.354Z,103164.41
2023-04-04T05:31:04.967Z,103163.63
2023-04-04T05:33:31.744Z,103159.59
2023-04-04T05:36:00.147Z,103163.91
2023-04-04T05:38:27.217Z,103160.16
2023-04-04T05:40:54.615Z,103165.78
2023-04-04T05:43:21.176Z,103164.47
2023-04-04T05:45:47.787Z,103167.94
2023-04-04T05:48:15.354Z,103163.94
2023-04-04T05:50:45.380Z,103154.31
2023-04-04T05:53:12.042Z,103161.81
2023-04-04T05:55:38.597Z,103160.72
2023-04-04T05:58:05.209Z,103168.28
2023-04-04T06:00:32.227Z,103171.50
2023-04-04T06:02:59.444Z,103167.75
2023-04-04T06:05:26.157Z,103165.63
2023-04-04T06:07:52.763Z,103162.47
2023-04-04T06:10:19.409Z,103156.88
2023-04-04T06:12:45.949Z,103166.56
2023-04-04T06:15:12.879Z,103162.00
2023-04-04T06:17:39.928Z,103163.91
2023-04-04T06:20:07.323Z,103165.56
2023-04-04T06:22:34.954Z,103166.09
2023-04-04T06:25:01.605Z,103164.75
2023-04-04T06:27:28.388Z,103152.16
2023-04-04T06:29:55.004Z,103145.72
2023-04-04T06:32:22.461Z,103155.44
2023-04-04T06:34:49.086Z,103160.84
2023-04-04T06:37:15.654Z,103156.28
2023-04-04T06:39:42.183Z,103160.34
2023-04-04T06:42:08.803Z,103167.88
2023-04-04T06:44:35.321Z,103173.53
2023-04-04T06:47:02.074Z,103176.22
2023-04-04T06:49:28.610Z,103175.16
2023-04-04T06:51:55.199Z,103181.84
2023-04-04T06:54:21.814Z,103180.75
2023-04-04T06:56:48.477Z,103177.53
2023-04-04T06:59:14.982Z,103183.72
2023-04-04T07:01:41.599Z,103178.56
2023-04-04T07:04:08.311Z,103178.00
2023-04-04T07:06:34.806Z,103178.25
2023-04-04T07:09:01.551Z,103177.41
2023-04-04T07:11:29.205Z,103176.00
2023-04-04T07:13:55.846Z,103179.72
2023-04-04T07:16:22.633Z,103175.38
2023-04-04T07:18:49.245Z,103174.78
2023-04-04T07:21:17.413Z,103180.91
2023-04-04T07:23:45.478Z,103186.47
2023-04-04T07:26:12.128Z,103187.44
2023-04-04T07:28:38.753Z,103187.88
2023-04-04T07:31:05.457Z,103188.84
2023-04-04T07:33:34.667Z,103181.75
2023-04-04T07:36:02.432Z,103179.03
2023-04-04T07:38:31.590Z,103174.63
2023-04-04T07:40:58.209Z,103179.34
2023-04-04T07:43:29.846Z,103187.13
2023-04-04T08:04:01.862Z,103182.91
2023-04-04T08:06:48.040Z,103180.44
2023-04-04T08:12:19.173Z,103177.38
2023-04-04T08:18:05.028Z,103168.94
2023-04-04T08:26:35.832Z,103175.13
2023-04-04T08:29:08.920Z,103172.44
2023-04-04T08:32:03.413Z,103163.75
2023-04-04T08:38:00.599Z,103153.63
2023-04-04T08:44:19.885Z,103154.25
2023-04-04T08:50:30.886Z,103149.22
2023-04-04T08:53:01.948Z,103157.56
2023-04-04T08:55:51.954Z,103149.88
2023-04-04T08:58:39.872Z,103149.22
2023-04-04T09:01:21.125Z,103148.84
2023-04-04T09:12:39.112Z,103161.53
2023-04-04T09:23:53.179Z,103156.25
2023-04-04T09:26:20.172Z,103154.97
2023-04-04T09:29:02.164Z,103155.97
2023-04-04T09:31:30.414Z,103154.38
2023-04-04T09:33:59.505Z,103152.41
2023-04-04T09:36:27.288Z,103142.88
2023-04-04T09:41:40.459Z,103148.47
2023-04-04T09:44:11.032Z,103137.25
2023-04-04T09:46:40.886Z,103141.31
2023-04-04T09:49:20.666Z,103143.41
2023-04-04T09:51:57.578Z,103142.28
2023-04-04T09:54:29.604Z,103131.56
2023-04-04T09:56:58.657Z,103133.06
2023-04-04T09:59:28.606Z,103126.16
2023-04-04T10:01:56.642Z,103132.44
2023-04-04T10:04:36.027Z,103133.47
2023-04-04T10:07:06.268Z,103122.72
2023-04-04T10:12:41.612Z,103125.94
2023-04-04T10:15:12.360Z,103124.59
2023-04-04T10:18:09.281Z,103127.91
2023-04-04T10:26:14.131Z,103113.78
2023-04-04T10:34:35.261Z,103097.66
2023-04-04T10:54:14.362Z,103089.31
2023-04-04T10:57:08.601Z,103089.97
2023-04-04T11:24:17.775Z,103058.00
2023-04-04T11:26:46.497Z,103052.56
2023-04-04T11:29:22.431Z,103053.84
2023-04-04T11:31:52.963Z,103054.66
2023-04-04T11:37:18.965Z,103038.00
2023-04-04T11:45:21.428Z,103043.91
2023-04-04T11:47:51.552Z,103036.72
2023-04-04T11:53:17.461Z,103029.38
2023-04-04T11:59:11.060Z,103020.72
2023-04-04T12:26:53.010Z,102991.53
2023-04-04T12:41:32.274Z,102978.47
2023-04-04T13:23:10.053Z,102925.03
2023-04-04T13:31:49.376Z,102925.78
2023-04-04T13:34:35.464Z,102913.91
2023-04-04T13:37:14.890Z,102917.31
2023-04-04T13:42:51.412Z,102909.31
2023-04-04T13:56:48.106Z,102894.19
2023-04-04T13:59:17.260Z,102887.97
2023-04-04T14:01:57.072Z,102885.16
2023-04-04T14:20:21.072Z,102857.56
2023-04-04T14:29:02.530Z,102860.78
2023-04-04T14:40:20.318Z,102842.25
2023-04-04T14:43:00.225Z,102844.84
2023-04-04T14:45:44.284Z,102838.69
2023-04-04T14:48:35.619Z,102838.53
2023-04-04T14:51:12.257Z,102836.13
2023-04-04T15:14:17.804Z,102824.69
2023-04-04T15:16:44.372Z,102823.44
2023-04-04T16:33:27.132Z,102759.66
2023-04-04T16:45:10.452Z,102759.09
2023-04-04T16:59:00.911Z,102750.31
2023-04-04T17:03:30.151Z,102749.56
2023-04-04T17:09:49.612Z,102750.28
2023-04-04T17:12:19.653Z,102744.22
2023-04-04T17:18:49.682Z,102744.22
2023-04-04T17:21:17.732Z,102746.34
2023-04-04T17:23:44.500Z,102746.66
2023-04-04T17:26:11.156Z,102744.44
2023-04-04T21:25:27.983Z,102739.22
2023-04-04T21:39:21.855Z,102726.56
2023-04-04T22:13:28.021Z,102696.91
2023-04-04T22:19:42.375Z,102692.69
2023-04-04T22:58:17.652Z,102692.59
2023-04-04T23:10:02.975Z,102687.25
2023-04-04T23:23:15.391Z,102682.81
2023-04-04T23:26:04.048Z,102688.06
2023-04-04T23:31:48.207Z,102684.75
